Time;durP1;ratioP1;P1;durP2;ratioP2;P2;SDS_P1;SDS_P2;PMS_P1;PMS_P2;Temp;Humidity;BMP_temperature;BMP_pressure;BME280_temperature;BME280_humidity;BME280_pressure;Samples;Min_cycle;Max_cycle;Signal;HPM_P1;HPM_P2
2022/04/24 00:01:38;;;;;;;;;25.75;23.50;;;;;14.24;71.59;99667.47;4973887;28;49656;-69
2022/04/24 00:04:03;;;;;;;;;30.25;29.25;;;;;14.11;71.56;99657.94;4975905;28;52525;-71
2022/04/24 00:06:31;;;;;;;;;18.00;17.75;;;;;14.13;71.24;99669.34;4973743;28;49616;-70
2022/04/24 00:08:57;;;;;;;;;22.25;20.75;;;;;13.90;71.73;99637.06;4968980;28;50036;-70
2022/04/24 00:11:23;;;;;;;;;21.75;21.00;;;;;14.08;71.46;99667.63;4968128;28;49941;-70
2022/04/24 00:13:48;;;;;;;;;21.25;21.25;;;;;13.79;72.13;99626.59;4973480;28;50632;-70
2022/04/24 00:16:14;;;;;;;;;19.50;19.25;;;;;14.01;72.44;99672.13;4963484;28;49586;-69
2022/04/24 00:18:39;;;;;;;;;22.50;19.50;;;;;13.59;71.99;99605.69;4968018;28;49352;-69
2022/04/24 00:21:05;;;;;;;;;20.75;20.75;;;;;13.98;71.96;99667.72;4961564;28;49813;-70
2022/04/24 00:23:31;;;;;;;;;21.25;20.00;;;;;13.85;72.35;99652.06;4956774;28;50634;-69
2022/04/24 00:25:57;;;;;;;;;22.75;22.00;;;;;13.94;72.49;99666.03;4972075;28;49708;-69
2022/04/24 00:28:23;;;;;;;;;18.00;17.00;;;;;13.86;72.45;99653.81;4978066;28;49646;-69
2022/04/24 00:30:48;;;;;;;;;23.00;21.50;;;;;13.86;72.57;99654.69;4971179;28;49547;-69
2022/04/24 00:33:14;;;;;;;;;19.00;19.00;;;;;13.61;72.05;99626.81;4960203;28;49798;-69
2022/04/24 00:35:39;;;;;;;;;19.50;19.25;;;;;13.74;72.28;99653.03;4963008;28;49622;-69
2022/04/24 00:38:04;;;;;;;;;21.75;21.75;;;;;13.77;72.49;99653.88;4950308;28;49673;-70
2022/04/24 00:40:30;;;;;;;;;18.00;16.25;;;;;13.73;72.35;99663.59;4950518;28;49717;-69
2022/04/24 00:42:55;;;;;;;;;18.00;17.00;;;;;13.71;72.64;99668.91;4950013;28;53124;-69
2022/04/24 00:45:21;;;;;;;;;16.50;16.50;;;;;13.58;72.45;99650.56;4950104;28;49615;-70
2022/04/24 00:47:46;;;;;;;;;20.50;20.50;;;;;13.64;72.91;99663.69;4950153;28;49928;-70
2022/04/24 00:50:12;;;;;;;;;25.50;22.50;;;;;13.46;73.31;99631.31;4972930;28;50127;-70
2022/04/24 00:52:37;;;;;;;;;22.25;20.25;;;;;13.60;72.84;99662.81;4961451;28;50076;-70
2022/04/24 00:55:04;;;;;;;;;18.00;18.00;;;;;13.52;72.78;99659.41;4952719;28;49618;-69
2022/04/24 00:57:30;;;;;;;;;19.00;16.50;;;;;13.41;72.56;99654.22;4950103;28;49592;-69
2022/04/24 00:59:55;;;;;;;;;21.75;21.75;;;;;13.21;72.96;99642.06;4952990;28;49808;-69
2022/04/24 01:02:21;;;;;;;;;17.50;17.50;;;;;13.32;73.08;99670.13;4949848;28;50893;-69
2022/04/24 01:04:46;;;;;;;;;19.25;18.75;;;;;13.28;72.91;99671.00;4952984;28;49678;-70
2022/04/24 01:07:12;;;;;;;;;21.00;21.00;;;;;13.06;72.95;99645.69;4951931;28;50028;-69
2022/04/24 01:09:37;;;;;;;;;22.00;19.50;;;;;13.28;73.45;99683.31;4953024;28;49820;-70
2022/04/24 01:12:04;;;;;;;;;23.25;21.50;;;;;13.22;72.95;99667.53;4956593;28;49669;-70
2022/04/24 01:14:30;;;;;;;;;24.00;22.75;;;;;13.22;73.02;99681.63;4961274;28;49640;-70
2022/04/24 01:16:57;;;;;;;;;22.75;19.25;;;;;13.17;73.37;99671.06;4958982;28;49759;-70
2022/04/24 01:19:24;;;;;;;;;19.50;19.25;;;;;13.05;72.99;99665.88;4971595;28;49681;-70
2022/04/24 01:21:50;;;;;;;;;22.25;20.00;;;;;13.05;73.11;99676.41;4968188;28;49808;-70
2022/04/24 01:24:21;;;;;;;;;17.25;17.00;;;;;12.90;73.30;99651.03;4968257;28;49952;-70
2022/04/24 01:26:47;;;;;;;;;23.00;22.00;;;;;13.11;73.46;99691.28;4971434;28;49786;-71
2022/04/24 01:29:12;;;;;;;;;25.00;20.75;;;;;13.07;73.28;99690.44;4968249;28;49896;-70
2022/04/24 01:31:39;;;;;;;;;21.50;21.50;;;;;13.09;73.50;99693.06;4967410;28;50699;-70
2022/04/24 01:34:04;;;;;;;;;21.25;19.75;;;;;12.95;73.16;99677.38;4968108;28;49681;-70
2022/04/24 01:36:30;;;;;;;;;25.75;22.50;;;;;12.99;73.46;99687.00;4968372;28;49593;-70
2022/04/24 01:38:55;;;;;;;;;21.75;20.00;;;;;12.98;73.34;99685.25;4968317;28;49763;-69
2022/04/24 01:41:20;;;;;;;;;19.25;18.75;;;;;13.05;73.40;99705.41;4967809;28;50565;-70
2022/04/24 01:43:47;;;;;;;;;19.00;18.00;;;;;13.05;72.93;99694.00;4969759;28;49863;-70
2022/04/24 01:46:21;;;;;;;;;18.75;18.00;;;;;12.87;72.92;99680.03;4977704;28;49466;-70
2022/04/24 01:48:46;;;;;;;;;19.75;18.50;;;;;12.95;72.95;99701.06;4978180;28;49856;-70
2022/04/24 01:51:14;;;;;;;;;20.75;19.75;;;;;12.80;73.01;99675.69;4971569;28;56459;-70
2022/04/24 01:53:40;;;;;;;;;18.75;18.75;;;;;12.72;73.05;99682.75;4971765;28;49676;-69
2022/04/24 01:56:06;;;;;;;;;18.25;17.25;;;;;12.84;73.04;99695.88;4968122;28;49752;-69
2022/04/24 01:58:33;;;;;;;;;18.50;17.75;;;;;12.80;73.02;99690.59;4967875;28;49797;-69
2022/04/24 02:00:58;;;;;;;;;21.50;20.50;;;;;12.75;73.07;99693.28;4970703;28;49586;-70
2022/04/24 02:03:25;;;;;;;;;17.75;17.25;;;;;12.78;72.78;99703.78;4971211;28;49625;-70
2022/04/24 02:05:50;;;;;;;;;17.50;16.75;;;;;12.70;72.69;99702.94;4973891;28;50021;-70
2022/04/24 02:08:16;;;;;;;;;18.75;18.75;;;;;12.72;73.11;99705.56;4960201;28;49841;-70
2022/04/24 02:10:41;;;;;;;;;16.50;14.25;;;;;12.75;72.86;99716.09;4949231;28;50500;-70
2022/04/24 02:13:08;;;;;;;;;17.50;15.50;;;;;12.69;72.62;99700.31;4964311;28;50098;-69
2022/04/24 02:15:33;;;;;;;;;19.75;18.00;;;;;12.81;73.05;99716.94;4976160;28;49787;-70
2022/04/24 02:17:59;;;;;;;;;18.00;18.00;;;;;12.76;72.36;99709.97;4979595;28;49764;-70
2022/04/24 02:20:25;;;;;;;;;19.00;18.25;;;;;12.70;72.10;99713.47;4973431;28;50371;-70
2022/04/24 02:22:50;;;;;;;;;19.75;19.25;;;;;12.77;72.17;99725.75;4967144;28;49758;-70
2022/04/24 02:25:17;;;;;;;;;22.25;19.25;;;;;12.70;71.90;99709.97;4970580;28;49818;-69
2022/04/24 02:27:43;;;;;;;;;18.00;17.50;;;;;12.77;72.50;99720.47;4974747;28;49777;-70
2022/04/24 02:30:09;;;;;;;;;17.00;16.50;;;;;12.60;72.48;99704.75;4970304;28;49626;-69
2022/04/24 02:32:34;;;;;;;;;18.75;17.25;;;;;12.71;72.30;99724.88;4981700;28;49612;-69
2022/04/24 02:35:00;;;;;;;;;20.75;18.00;;;;;12.54;72.10;99704.75;4973901;28;49732;-69
2022/04/24 02:37:26;;;;;;;;;20.00;18.50;;;;;12.63;72.36;99729.31;4983580;28;49487;-70
2022/04/24 02:39:52;;;;;;;;;22.00;20.75;;;;;12.60;72.25;99725.81;4973151;28;50761;-70
2022/04/24 02:42:17;;;;;;;;;18.00;17.25;;;;;12.50;72.33;99715.31;4967303;28;49882;-70
2022/04/24 02:44:43;;;;;;;;;17.00;17.00;;;;;12.46;72.21;99706.56;4974475;28;49951;-71
2022/04/24 02:47:08;;;;;;;;;18.00;18.00;;;;;12.46;72.09;99710.97;4954761;28;50006;-71
2022/04/24 02:49:33;;;;;;;;;22.25;19.75;;;;;12.43;71.96;99700.44;4948301;28;49915;-70
2022/04/24 02:51:59;;;;;;;;;19.00;19.00;;;;;12.53;72.16;99733.72;4954935;28;50666;-70
2022/04/24 02:54:24;;;;;;;;;20.25;18.25;;;;;12.52;72.30;99738.13;4959633;28;49372;-70
2022/04/24 02:56:49;;;;;;;;;20.75;20.25;;;;;12.46;72.17;99732.03;4956862;28;49811;-70
2022/04/24 02:59:16;;;;;;;;;17.25;17.00;;;;;12.11;71.98;99672.47;4958473;28;49843;-70
2022/04/24 03:01:42;;;;;;;;;18.00;15.75;;;;;12.39;72.19;99718.00;4951227;28;50053;-70
2022/04/24 03:04:08;;;;;;;;;21.50;21.50;;;;;12.55;72.06;99739.88;4951564;28;49911;-70
2022/04/24 03:06:33;;;;;;;;;28.50;20.75;;;;;12.54;72.70;99732.84;4951724;28;49887;-71
2022/04/24 03:08:58;;;;;;;;;17.75;17.00;;;;;12.56;72.71;99746.91;4952269;28;49765;-70
2022/04/24 03:11:24;;;;;;;;;19.50;17.25;;;;;12.53;72.37;99744.25;4951830;28;49800;-70
2022/04/24 03:13:49;;;;;;;;;20.00;18.75;;;;;12.33;72.83;99710.09;4954476;28;49642;-71
2022/04/24 03:16:14;;;;;;;;;16.50;15.25;;;;;12.31;73.09;99722.41;4957409;28;49529;-70
2022/04/24 03:18:40;;;;;;;;;18.50;16.00;;;;;12.45;73.23;99752.22;4956945;28;50480;-70
2022/04/24 03:21:06;;;;;;;;;19.50;18.00;;;;;12.43;73.30;99748.69;4965101;28;50009;-71
2022/04/24 03:23:31;;;;;;;;;19.25;18.75;;;;;12.41;73.50;99752.19;4977675;28;49844;-70
2022/04/24 03:25:57;;;;;;;;;19.25;18.75;;;;;12.31;73.88;99746.09;4987664;28;49423;-71
2022/04/24 03:28:22;;;;;;;;;20.00;18.75;;;;;12.32;74.12;99756.59;4987279;28;49455;-70
2022/04/24 03:30:47;;;;;;;;;21.00;18.75;;;;;12.18;74.07;99744.38;4974145;27;49721;-70
2022/04/24 03:33:13;;;;;;;;;18.75;17.50;;;;;12.28;74.49;99759.25;4950940;28;49910;-69
2022/04/24 03:35:38;;;;;;;;;20.50;19.25;;;;;12.23;74.91;99755.75;4955492;28;49786;-71
2022/04/24 03:38:04;;;;;;;;;21.75;17.75;;;;;12.16;75.34;99741.75;4951173;28;49800;-70
2022/04/24 03:40:29;;;;;;;;;22.25;20.25;;;;;12.18;75.62;99762.78;4954601;28;49811;-71
2022/04/24 03:42:54;;;;;;;;;23.75;22.25;;;;;11.99;76.24;99735.63;4956797;28;50157;-70
2022/04/24 03:45:20;;;;;;;;;24.00;24.00;;;;;12.03;76.29;99753.16;4963269;28;49858;-70
2022/04/24 03:47:47;;;;;;;;;25.50;25.50;;;;;12.08;76.61;99766.31;4961889;28;49710;-71
2022/04/24 03:50:13;;;;;;;;;24.75;24.50;;;;;12.04;77.02;99766.28;4950638;28;49845;-70
2022/04/24 03:52:39;;;;;;;;;29.00;25.25;;;;;11.65;77.30;99713.69;4960117;28;50007;-70
2022/04/24 03:55:05;;;;;;;;;22.75;21.25;;;;;11.97;77.29;99769.84;4962765;28;49424;-70
2022/04/24 03:57:31;;;;;;;;;23.00;21.75;;;;;11.95;77.63;99768.94;4967809;28;49404;-70
2022/04/24 03:59:56;;;;;;;;;25.50;25.00;;;;;11.88;77.40;99766.34;4958596;28;51669;-70
2022/04/24 04:02:22;;;;;;;;;25.25;23.25;;;;;11.88;77.76;99767.22;4956542;28;49741;-71
2022/04/24 04:04:48;;;;;;;;;26.25;25.00;;;;;11.87;77.92;99775.97;4954141;28;49961;-70
2022/04/24 04:07:13;;;;;;;;;32.00;29.00;;;;;11.81;78.61;99775.97;4950404;28;50489;-70
2022/04/24 04:09:39;;;;;;;;;28.75;27.00;;;;;11.62;78.17;99747.88;4950554;28;49867;-70
2022/04/24 04:12:06;;;;;;;;;27.50;27.50;;;;;11.78;78.86;99785.59;4950650;28;49741;-69
2022/04/24 04:14:31;;;;;;;;;27.50;25.50;;;;;11.70;78.61;99775.06;4950658;28;49650;-70
2022/04/24 04:16:57;;;;;;;;;24.00;24.00;;;;;11.75;78.74;99783.81;4962563;28;50763;-71
2022/04/24 04:19:22;;;;;;;;;26.75;24.75;;;;;11.61;78.68;99768.03;4963719;28;49646;-71
2022/04/24 04:21:48;;;;;;;;;25.25;21.75;;;;;11.36;79.06;99732.97;4964870;28;49726;-71
2022/04/24 04:24:13;;;;;;;;;25.25;24.75;;;;;11.65;78.88;99790.81;4959683;28;49752;-71
2022/04/24 04:26:38;;;;;;;;;26.00;24.50;;;;;11.58;78.91;99780.28;4961052;28;49803;-70
2022/04/24 04:29:04;;;;;;;;;24.50;23.00;;;;;11.58;78.86;99780.28;4962596;28;49405;-71
2022/04/24 04:31:29;;;;;;;;;23.25;22.00;;;;;11.41;78.95;99768.00;4960130;28;49940;-70
2022/04/24 04:33:55;;;;;;;;;24.25;22.00;;;;;11.58;78.99;99796.06;4950647;28;50025;-70
2022/04/24 04:36:20;;;;;;;;;26.50;23.50;;;;;11.28;79.23;99753.09;4950116;28;49815;-70
2022/04/24 04:38:45;;;;;;;;;28.00;25.00;;;;;11.40;79.30;99770.66;4957531;28;49421;-70
2022/04/24 04:41:11;;;;;;;;;30.50;27.00;;;;;11.50;79.33;99798.69;4956873;28;49473;-70
2022/04/24 04:43:37;;;;;;;;;27.50;25.00;;;;;11.27;79.41;99768.84;4953864;28;49743;-70
2022/04/24 04:46:02;;;;;;;;;26.75;25.75;;;;;11.44;79.38;99791.66;4949795;28;49772;-70
2022/04/24 04:48:28;;;;;;;;;31.50;24.50;;;;;11.42;79.79;99793.41;4950037;28;49669;-70
2022/04/24 04:50:53;;;;;;;;;28.50;27.75;;;;;11.45;79.46;99803.94;4950143;28;49785;-71
2022/04/24 04:53:19;;;;;;;;;20.00;20.00;;;;;11.43;79.65;99796.91;4955110;28;49833;-70
2022/04/24 04:55:44;;;;;;;;;19.50;19.50;;;;;11.42;79.52;99805.69;4960652;28;49911;-70
2022/04/24 04:58:10;;;;;;;;;24.25;22.50;;;;;11.23;79.35;99774.97;4953035;28;49757;-70
2022/04/24 05:00:35;;;;;;;;;27.25;24.50;;;;;11.37;79.65;99813.53;4957486;28;49349;-71
2022/04/24 05:03:00;;;;;;;;;25.75;22.75;;;;;11.31;79.12;99810.03;4954189;28;49788;-70
2022/04/24 05:05:26;;;;;;;;;24.00;24.00;;;;;11.40;80.04;99829.34;4954843;28;53867;-71
2022/04/24 05:07:52;;;;;;;;;27.75;26.00;;;;;11.38;79.39;99817.91;4955723;28;49524;-71
2022/04/24 05:10:18;;;;;;;;;25.00;24.75;;;;;10.99;79.57;99767.91;4967690;28;49505;-70
2022/04/24 05:12:43;;;;;;;;;24.00;21.50;;;;;11.37;79.51;99831.06;4957769;28;49651;-70
2022/04/24 05:15:14;;;;;;;;;21.75;21.25;;;;;11.44;79.25;99836.34;4948741;28;51225;-70
2022/04/24 05:17:41;;;;;;;;;26.00;24.75;;;;;11.40;79.22;99831.09;4949744;28;49784;-70
2022/04/24 05:20:10;;;;;;;;;27.25;25.25;;;;;11.46;78.54;99842.47;4952848;28;49767;-70
2022/04/24 05:22:36;;;;;;;;;28.00;27.25;;;;;11.42;78.61;99838.09;4955369;28;49810;-71
2022/04/24 05:25:01;;;;;;;;;28.50;25.00;;;;;11.55;77.78;99862.66;4956217;28;49700;-70
2022/04/24 05:27:27;;;;;;;;;27.25;23.75;;;;;11.56;78.03;99856.50;4956822;28;51945;-70
2022/04/24 05:29:52;;;;;;;;;17.00;17.00;;;;;11.57;78.42;99860.00;4975843;28;49861;-70
2022/04/24 05:32:18;;;;;;;;;28.25;25.50;;;;;11.60;78.38;99860.03;4968123;28;49999;-71
2022/04/24 05:34:43;;;;;;;;;22.00;20.25;;;;;11.51;78.58;99839.88;4970936;28;50921;-71
2022/04/24 05:37:09;;;;;;;;;26.25;24.50;;;;;11.52;78.87;99849.50;4968156;28;49856;-70
2022/04/24 05:39:35;;;;;;;;;31.25;28.50;;;;;11.65;78.43;99866.16;4968033;28;49824;-70
2022/04/24 05:42:00;;;;;;;;;35.50;32.00;;;;;11.60;78.71;99852.16;4968462;28;50206;-71
2022/04/24 05:44:26;;;;;;;;;23.50;21.25;;;;;11.67;78.34;99870.56;4967954;28;50788;-71
2022/04/24 05:46:52;;;;;;;;;27.25;25.00;;;;;11.69;78.40;99868.81;4961577;28;49724;-71
2022/04/24 05:49:17;;;;;;;;;25.50;23.50;;;;;11.71;78.27;99864.44;4960320;28;49741;-70
2022/04/24 05:51:43;;;;;;;;;30.25;24.75;;;;;11.75;77.93;99874.06;4949877;28;49935;-71
2022/04/24 05:54:09;;;;;;;;;22.75;22.75;;;;;11.80;77.83;99868.00;4950777;28;51539;-70
2022/04/24 05:56:35;;;;;;;;;24.00;19.25;;;;;11.67;77.38;99852.16;4979204;28;49432;-70
2022/04/24 05:59:00;;;;;;;;;26.75;25.50;;;;;11.65;77.32;99847.78;4970887;28;49774;-70
2022/04/24 06:01:25;;;;;;;;;27.25;24.25;;;;;11.73;77.07;99846.91;4973753;28;50035;-70
2022/04/24 06:03:51;;;;;;;;;24.25;22.50;;;;;11.84;76.94;99861.84;4967870;28;52066;-72
2022/04/24 06:06:16;;;;;;;;;27.75;25.75;;;;;11.88;76.90;99868.91;4967393;28;49912;-70
2022/04/24 06:08:43;;;;;;;;;24.00;22.25;;;;;11.82;76.80;99851.34;4967903;28;49632;-69
2022/04/24 06:11:08;;;;;;;;;27.00;24.50;;;;;11.96;76.93;99867.13;4967835;28;50224;-70
2022/04/24 06:13:34;;;;;;;;;23.50;21.75;;;;;12.11;76.69;99879.44;4971787;28;49943;-70
2022/04/24 06:15:59;;;;;;;;;28.50;25.75;;;;;12.17;76.77;99890.84;4969600;28;50156;-70
2022/04/24 06:18:25;;;;;;;;;27.50;24.50;;;;;12.21;76.47;99881.19;4970787;28;49843;-70
2022/04/24 06:20:51;;;;;;;;;26.75;26.00;;;;;12.14;76.29;99859.25;4967847;28;49671;-70
2022/04/24 06:23:16;;;;;;;;;24.75;21.25;;;;;12.35;75.93;99883.78;4967443;28;50379;-70
2022/04/24 06:25:42;;;;;;;;;25.00;25.00;;;;;12.13;75.75;99838.19;4970264;28;49753;-70
2022/04/24 06:28:08;;;;;;;;;31.25;26.00;;;;;12.46;74.77;99887.31;4969709;28;50040;-70
2022/04/24 06:30:35;;;;;;;;;25.25;21.25;;;;;12.50;74.21;99887.31;4971171;28;49930;-69
2022/04/24 06:33:01;;;;;;;;;24.75;24.75;;;;;12.51;73.79;99889.06;4974388;28;50434;-69
2022/04/24 06:35:26;;;;;;;;;26.50;26.50;;;;;12.56;73.44;99883.81;4975777;28;49642;-69
2022/04/24 06:37:54;;;;;;;;;22.75;21.75;;;;;12.68;73.41;99894.31;4980024;28;49780;-69
2022/04/24 06:40:20;;;;;;;;;26.00;26.00;;;;;12.78;73.00;99903.94;4982409;28;49563;-69
2022/04/24 06:42:51;;;;;;;;;30.25;29.75;;;;;12.80;72.85;99894.28;4982425;28;50536;-69
2022/04/24 06:45:20;;;;;;;;;34.50;29.50;;;;;12.81;72.47;99889.88;4979933;28;49749;-70
2022/04/24 06:47:45;;;;;;;;;33.50;26.50;;;;;12.96;73.07;99899.53;4979914;28;49569;-69
2022/04/24 06:50:11;;;;;;;;;38.25;30.75;;;;;13.05;72.06;99910.03;4981598;28;49373;-69
2022/04/24 06:52:36;;;;;;;;;29.50;26.75;;;;;13.03;71.90;99888.09;4968489;28;50277;-69
2022/04/24 06:55:02;;;;;;;;;34.00;31.00;;;;;13.11;71.53;99897.69;4976889;28;49610;-69
2022/04/24 06:57:27;;;;;;;;;30.00;28.25;;;;;13.04;71.78;99869.66;4978117;28;49600;-69
2022/04/24 06:59:53;;;;;;;;;32.00;28.00;;;;;13.18;71.86;99881.00;4981187;28;49723;-69
2022/04/24 07:02:18;;;;;;;;;36.25;32.00;;;;;13.14;72.00;99846.78;4977502;28;49822;-69
2022/04/24 07:04:43;;;;;;;;;31.75;30.25;;;;;13.42;71.61;99887.09;4976231;28;49854;-69
2022/04/24 07:07:09;;;;;;;;;25.00;22.25;;;;;13.58;71.46;99899.31;4981971;28;50250;-70
2022/04/24 07:09:34;;;;;;;;;34.25;31.25;;;;;13.66;71.43;99904.53;4979910;28;49796;-69
2022/04/24 07:11:59;;;;;;;;;31.75;30.75;;;;;13.79;70.54;99913.25;4975533;28;50031;-70
2022/04/24 07:14:25;;;;;;;;;43.00;36.00;;;;;13.82;69.70;99915.91;4974624;28;49874;-69
2022/04/24 07:16:50;;;;;;;;;35.00;32.75;;;;;13.91;69.33;99910.56;4975133;28;50003;-70
2022/04/24 07:19:15;;;;;;;;;37.00;33.50;;;;;14.03;68.36;99902.56;4975569;28;49762;-70
2022/04/24 07:21:41;;;;;;;;;29.75;24.25;;;;;13.95;68.49;99867.44;4977082;28;49970;-70
2022/04/24 07:24:07;;;;;;;;;39.00;34.75;;;;;14.19;67.97;99893.66;4979956;28;49759;-70
2022/04/24 07:26:32;;;;;;;;;42.75;38.00;;;;;14.23;66.67;99894.50;4978290;28;49519;-70
2022/04/24 07:28:58;;;;;;;;;38.25;35.00;;;;;14.38;66.13;99914.59;4979509;28;49753;-69
2022/04/24 07:31:23;;;;;;;;;37.25;34.00;;;;;14.52;65.76;99929.50;4971245;28;50100;-69
2022/04/24 07:33:48;;;;;;;;;43.50;37.00;;;;;14.60;65.84;99927.66;4970583;28;49676;-70
2022/04/24 07:36:14;;;;;;;;;43.00;38.75;;;;;14.69;65.19;99926.72;4967036;28;49822;-70
2022/04/24 07:38:39;;;;;;;;;40.75;35.50;;;;;14.74;65.55;99924.00;4997395;27;49807;-70
2022/04/24 07:41:05;;;;;;;;;43.75;36.25;;;;;14.62;64.29;99898.59;5000299;27;49924;-69
2022/04/24 07:43:30;;;;;;;;;39.00;35.50;;;;;14.72;64.47;99921.38;4951671;28;49867;-69
2022/04/24 07:45:56;;;;;;;;;36.00;33.75;;;;;14.83;63.36;99921.28;4966925;28;49836;-70
2022/04/24 07:48:21;;;;;;;;;42.00;36.75;;;;;14.87;63.65;99928.31;4953894;28;49658;-69
2022/04/24 07:50:50;;;;;;;;;44.00;38.25;;;;;14.77;63.12;99938.09;4950477;28;49784;-71
2022/04/24 07:53:17;;;;;;;;;38.00;34.75;;;;;14.73;63.10;99927.53;4950927;28;50005;-71
2022/04/24 07:55:44;;;;;;;;;34.25;32.25;;;;;14.80;62.49;99940.69;4958158;28;49963;-70
2022/04/24 07:58:10;;;;;;;;;40.50;36.00;;;;;14.79;62.61;99932.78;4961477;28;50068;-79
2022/04/24 08:00:36;;;;;;;;;46.00;38.00;;;;;14.87;63.17;99931.81;4950050;28;50663;-67
2022/04/24 08:03:12;;;;;;;;;39.75;32.50;;;;;15.03;62.75;99937.81;4957065;28;49812;-79
2022/04/24 08:05:45;;;;;;;;;37.75;35.25;;;;;15.09;62.42;99947.44;4950102;28;49857;-76
2022/04/24 08:08:17;;;;;;;;;29.25;29.25;;;;;14.86;62.52;99918.59;4951301;28;49805;-76
2022/04/24 08:10:47;;;;;;;;;36.75;34.75;;;;;14.97;62.65;99945.81;4951083;28;49939;-73
2022/04/24 08:13:13;;;;;;;;;47.00;39.00;;;;;14.99;63.59;99948.44;4950855;28;49736;-72
2022/04/24 08:15:39;;;;;;;;;44.50;37.00;;;;;15.01;62.37;99947.53;4950548;28;49951;-74
2022/04/24 08:18:05;;;;;;;;;40.50;34.75;;;;;14.91;62.25;99948.50;4950694;28;49938;-77
2022/04/24 08:20:32;;;;;;;;;42.25;36.50;;;;;14.96;62.11;99943.16;4950469;28;49695;-75
2022/04/24 08:23:02;;;;;;;;;41.25;34.50;;;;;15.15;61.95;99956.19;4950732;28;49997;-66
2022/04/24 08:25:29;;;;;;;;;44.25;38.25;;;;;15.22;61.80;99958.75;4950599;28;49831;-76
2022/04/24 08:27:56;;;;;;;;;42.00;37.25;;;;;15.28;61.66;99956.94;4950543;28;50296;-69
2022/04/24 08:30:26;;;;;;;;;41.50;36.25;;;;;15.33;62.03;99952.44;4949888;28;51582;-68
2022/04/24 08:32:52;;;;;;;;;42.00;37.25;;;;;15.41;61.89;99968.25;4950377;28;49825;-69
2022/04/24 08:35:19;;;;;;;;;47.25;38.00;;;;;15.25;60.91;99925.25;4950302;28;50232;-68
2022/04/24 08:37:45;;;;;;;;;38.75;35.00;;;;;15.39;61.38;99959.44;4950513;28;49773;-67
2022/04/24 08:40:13;;;;;;;;;43.75;39.00;;;;;15.21;60.96;99905.00;4949984;28;50142;-74
2022/04/24 08:42:40;;;;;;;;;41.50;35.50;;;;;15.57;60.31;99956.59;4948866;28;49964;-68
2022/04/24 08:45:10;;;;;;;;;46.75;38.50;;;;;15.65;61.27;99962.69;4950087;28;49987;-68
2022/04/24 08:47:36;;;;;;;;;39.25;36.00;;;;;15.75;60.48;99958.16;4950718;28;49917;-68
2022/04/24 08:50:02;;;;;;;;;35.25;29.50;;;;;15.77;59.32;99953.72;4951892;28;49891;-68
2022/04/24 08:52:29;;;;;;;;;40.00;36.25;;;;;15.74;58.62;99953.78;4950042;28;49821;-66
2022/04/24 08:54:56;;;;;;;;;41.50;36.00;;;;;15.77;58.38;99964.31;4963085;28;49902;-65
2022/04/24 08:57:26;;;;;;;;;46.00;37.50;;;;;15.84;58.25;99965.97;4968646;28;49641;-65
2022/04/24 08:59:55;;;;;;;;;39.00;34.25;;;;;15.86;57.76;99963.31;4968225;28;50198;-71
2022/04/24 09:02:21;;;;;;;;;47.50;38.25;;;;;16.01;58.14;99960.44;4973653;28;49904;-72
2022/04/24 09:04:47;;;;;;;;;40.75;36.75;;;;;16.01;57.48;99941.91;4974783;28;49606;-71
2022/04/24 09:07:17;;;;;;;;;41.50;35.25;;;;;16.40;57.65;99968.69;4968980;28;50010;-67
2022/04/24 09:09:48;;;;;;;;;38.50;34.50;;;;;16.38;55.91;99976.66;4968327;28;49832;-69
2022/04/24 09:12:16;;;;;;;;;34.00;32.00;;;;;16.37;56.43;99953.72;4971257;28;49859;-69
2022/04/24 09:14:53;;;;;;;;;47.50;36.00;;;;;16.46;57.13;99947.41;4978694;28;50090;-67
2022/04/24 09:17:24;;;;;;;;;36.25;30.00;;;;;16.89;57.15;99955.56;4977739;28;49865;-69
2022/04/24 09:19:51;;;;;;;;;46.75;37.50;;;;;16.94;55.56;99968.72;4976854;28;50242;-66
2022/04/24 09:22:17;;;;;;;;;42.25;33.25;;;;;17.08;56.16;99969.34;4977078;28;49723;-64
2022/04/24 09:25:01;;;;;;;;;39.50;34.25;;;;;17.38;55.35;99978.53;4976902;28;49795;-69
2022/04/24 09:27:35;;;;;;;;;40.50;34.75;;;;;17.58;54.25;99989.59;4974442;28;49930;-72
2022/04/24 09:30:14;;;;;;;;;34.25;29.25;;;;;17.44;53.49;99986.34;4978539;28;49693;-69
2022/04/24 09:32:48;;;;;;;;;42.50;34.50;;;;;17.31;54.44;99990.13;4969979;28;50031;-73
2022/04/24 09:35:33;;;;;;;;;38.25;35.50;;;;;17.14;54.45;99930.31;4972267;28;49804;-72
2022/04/24 09:38:13;;;;;;;;;47.25;35.50;;;;;17.61;53.50;99981.56;4972588;28;49802;-73
2022/04/24 09:40:46;;;;;;;;;36.75;32.00;;;;;17.76;53.59;99987.50;4969114;28;49794;-66
2022/04/24 09:43:13;;;;;;;;;38.00;34.25;;;;;17.93;53.77;99990.69;4969398;28;49769;-67
2022/04/24 09:45:53;;;;;;;;;37.25;32.00;;;;;17.83;52.42;99952.81;4973632;28;49874;-73
2022/04/24 09:48:20;;;;;;;;;30.00;28.75;;;;;18.13;50.31;99974.28;4969339;28;49783;-73
2022/04/24 09:50:48;;;;;;;;;40.25;35.00;;;;;18.03;50.81;99957.69;4972943;28;50747;-87
2022/04/24 09:53:15;;;;;;;;;38.25;34.75;;;;;18.18;50.47;99991.03;4956433;28;49666;-72
2022/04/24 09:55:45;;;;;;;;;35.75;33.00;;;;;18.04;50.85;99954.13;4960855;28;49911;-73
2022/04/24 09:58:14;;;;;;;;;46.75;36.50;;;;;18.03;49.85;99987.78;4952117;28;49665;-71
2022/04/24 10:00:44;;;;;;;;;32.75;32.50;;;;;17.38;50.76;99896.28;4953713;28;50333;-72
2022/04/24 10:03:12;;;;;;;;;43.75;35.00;;;;;17.78;50.82;99975.09;4949629;28;49794;-71
2022/04/24 10:05:42;;;;;;;;;40.25;35.25;;;;;17.44;51.05;99912.91;4949195;28;49678;-72
2022/04/24 10:08:08;;;;;;;;;35.25;33.50;;;;;17.65;51.39;99969.09;4956575;28;49758;-72
2022/04/24 10:10:33;;;;;;;;;34.75;31.50;;;;;17.14;51.19;99914.41;4957612;28;49940;-71
2022/04/24 10:13:06;;;;;;;;;35.75;32.50;;;;;17.05;51.55;99922.53;4949638;28;49957;-71
2022/04/24 10:15:33;;;;;;;;;41.25;35.00;;;;;17.26;51.68;99999.94;4951703;28;50067;-72
2022/04/24 10:18:16;;;;;;;;;38.25;32.50;;;;;17.12;52.30;100027.59;4954270;28;49953;-71
2022/04/24 10:21:09;;;;;;;;;34.25;31.50;;;;;17.04;52.77;100021.56;4951216;28;50787;-70
2022/04/24 10:23:36;;;;;;;;;58.00;47.25;;;;;17.17;53.33;100020.44;4948934;28;49716;-71
2022/04/24 10:26:03;;;;;;;;;37.50;34.50;;;;;16.19;52.88;99848.09;4949584;28;50135;-71
2022/04/24 10:28:39;;;;;;;;;63.25;49.25;;;;;16.60;52.25;99900.38;4948880;28;49935;-71
2022/04/24 10:31:05;;;;;;;;;46.75;38.75;;;;;17.21;52.41;99968.22;4946843;28;51490;-71
2022/04/24 10:33:36;;;;;;;;;36.50;32.75;;;;;17.52;51.74;100018.91;4960261;28;50000;-71
2022/04/24 10:36:15;;;;;;;;;37.00;32.00;;;;;17.54;51.80;100038.31;4949548;28;49775;-70
2022/04/24 10:38:57;;;;;;;;;39.00;33.00;;;;;17.52;52.72;100034.84;4947645;28;49981;-71
2022/04/24 10:41:29;;;;;;;;;44.00;39.25;;;;;15.78;52.22;99754.34;4948730;28;50327;-70
2022/04/24 10:44:06;;;;;;;;;35.25;32.50;;;;;17.57;52.94;100030.31;4948557;28;49711;-71
2022/04/24 10:46:33;;;;;;;;;33.75;31.75;;;;;17.24;53.09;99975.25;4948570;28;49681;-71
2022/04/24 10:49:09;;;;;;;;;37.25;32.75;;;;;17.50;52.37;100004.81;4948507;28;49941;-71
2022/04/24 10:51:37;;;;;;;;;35.25;30.75;;;;;17.44;52.76;99995.16;4948304;28;50595;-70
2022/04/24 10:54:07;;;;;;;;;20.50;19.00;;;;;17.72;52.31;100045.97;4953990;28;49828;-70
2022/04/24 10:56:33;;;;;;;;;38.50;32.50;;;;;17.46;52.75;100011.06;4948390;28;49964;-71
2022/04/24 10:59:14;;;;;;;;;28.50;27.50;;;;;17.77;52.51;100053.84;4955195;28;50146;-71
2022/04/24 11:01:57;;;;;;;;;34.50;31.25;;;;;17.81;52.37;100036.06;4947731;28;50105;-71
2022/04/24 11:04:25;;;;;;;;;31.75;30.50;;;;;17.94;51.71;100034.91;4948311;28;49914;-71
2022/04/24 11:06:59;;;;;;;;;42.00;34.75;;;;;18.14;51.12;100047.75;4953635;28;49983;-71
2022/04/24 11:09:31;;;;;;;;;34.50;32.00;;;;;16.92;51.47;99816.78;4948962;28;49908;-71
2022/04/24 11:12:07;;;;;;;;;40.75;33.00;;;;;18.60;50.15;100050.28;4948075;28;50952;-71
2022/04/24 11:14:35;;;;;;;;;46.25;36.50;;;;;17.26;50.04;99793.94;4955245;28;49973;-69
2022/04/24 11:17:02;;;;;;;;;32.75;30.25;;;;;18.68;47.41;100003.16;4949901;28;49895;-70